createdAt,value
2018-05-08T00:01:26.372Z,4.20
2018-05-08T00:03:54.693Z,3.57
2018-05-08T00:06:22.939Z,3.37
2018-05-08T00:08:51.225Z,3.73
2018-05-08T00:11:19.450Z,4.23
2018-05-08T00:13:47.691Z,3.80
2018-05-08T00:16:15.926Z,3.50
2018-05-08T00:18:44.963Z,4.03
2018-05-08T00:21:13.179Z,3.57
2018-05-08T00:23:41.436Z,3.97
2018-05-08T00:26:09.720Z,3.60
2018-05-08T00:28:37.978Z,3.60
2018-05-08T00:31:06.484Z,4.27
2018-05-08T00:33:34.745Z,4.20
2018-05-08T00:36:03.048Z,3.57
2018-05-08T00:38:32.098Z,3.70
2018-05-08T00:41:00.409Z,4.40
2018-05-08T00:43:28.689Z,3.83
2018-05-08T00:45:56.986Z,3.73
2018-05-08T00:48:25.232Z,4.07
2018-05-08T00:50:53.514Z,4.00
2018-05-08T00:53:21.774Z,3.80
2018-05-08T00:55:49.993Z,3.77
2018-05-08T00:58:18.987Z,3.67
2018-05-08T01:00:47.208Z,3.93
2018-05-08T01:03:15.528Z,3.53
2018-05-08T01:05:44.868Z,3.57
2018-05-08T01:08:13.618Z,3.47
2018-05-08T01:10:42.694Z,3.90
2018-05-08T01:13:10.999Z,3.83
2018-05-08T01:15:40.062Z,4.07
2018-05-08T01:18:08.349Z,3.50
2018-05-08T01:20:36.622Z,3.53
2018-05-08T01:23:04.931Z,3.50
2018-05-08T01:25:33.238Z,3.70
2018-05-08T01:28:01.532Z,4.03
2018-05-08T01:30:29.847Z,3.63
2018-05-08T01:32:58.901Z,3.87
2018-05-08T01:35:27.169Z,3.70
2018-05-08T01:37:55.503Z,3.70
2018-05-08T01:40:23.750Z,3.87
2018-05-08T01:42:51.960Z,3.40
2018-05-08T01:45:20.198Z,3.83
2018-05-08T01:47:48.455Z,3.97
2018-05-08T01:50:16.743Z,3.80
2018-05-08T01:52:45.030Z,3.80
2018-05-08T01:55:13.385Z,3.73
2018-05-08T01:57:41.603Z,3.90
2018-05-08T02:00:09.872Z,3.90
2018-05-08T02:02:38.123Z,4.30
2018-05-08T02:05:06.386Z,3.87
2018-05-08T02:07:34.702Z,3.73
2018-05-08T02:10:03.064Z,3.90
2018-05-08T02:12:31.353Z,3.97
2018-05-08T02:14:59.619Z,3.97
2018-05-08T02:17:27.884Z,4.27
2018-05-08T02:19:56.150Z,3.90
2018-05-08T02:22:24.418Z,4.23
2018-05-08T02:24:52.671Z,4.13
2018-05-08T02:27:20.994Z,4.03
2018-05-08T02:29:49.309Z,4.00
2018-05-08T02:32:18.331Z,4.27
2018-05-08T02:34:46.612Z,3.80
2018-05-08T02:37:14.895Z,4.23
2018-05-08T02:39:43.150Z,3.90
2018-05-08T02:42:11.426Z,3.90
2018-05-08T02:44:39.673Z,4.00
2018-05-08T02:47:07.919Z,3.97
2018-05-08T02:52:11.356Z,3.87
2018-05-08T02:54:39.670Z,3.97
2018-05-08T02:57:07.930Z,4.20
2018-05-08T02:59:36.161Z,4.40
2018-05-08T03:02:04.425Z,4.40
2018-05-08T03:04:32.686Z,3.90
2018-05-08T03:07:00.968Z,4.00
2018-05-08T03:09:29.186Z,4.10
2018-05-08T03:11:57.448Z,4.10
2018-05-08T03:14:25.683Z,3.93
2018-05-08T03:16:53.964Z,4.13
2018-05-08T03:19:22.206Z,4.20
2018-05-08T03:21:51.225Z,4.23
2018-05-08T03:24:19.547Z,4.20
2018-05-08T03:26:47.819Z,4.20
2018-05-08T03:29:16.092Z,4.33
2018-05-08T03:31:44.343Z,4.40
2018-05-08T03:34:12.635Z,4.60
2018-05-08T03:36:40.886Z,4.30
2018-05-08T03:39:09.114Z,4.13
2018-05-08T03:41:37.424Z,4.27
2018-05-08T03:44:05.709Z,4.87
2018-05-08T03:46:35.419Z,4.57
2018-05-08T03:49:04.543Z,4.50
2018-05-08T03:51:32.869Z,4.50
2018-05-08T03:54:01.150Z,4.50
2018-05-08T03:56:29.627Z,4.77
2018-05-08T03:58:57.901Z,4.83
2018-05-08T04:01:43.867Z,5.63
2018-05-08T04:04:29.848Z,4.53
2018-05-08T04:07:15.796Z,4.63
2018-05-08T04:09:44.830Z,4.90
2018-05-08T04:12:13.096Z,4.70
2018-05-08T04:14:41.552Z,4.33
2018-05-08T04:17:17.263Z,4.53
2018-05-08T04:19:49.346Z,4.60
2018-05-08T04:22:18.682Z,4.67
2018-05-08T04:24:47.987Z,5.10
2018-05-08T04:27:16.508Z,4.73
2018-05-08T04:29:44.951Z,4.63
2018-05-08T04:32:15.203Z,4.57
2018-05-08T04:37:30.543Z,4.67
2018-05-08T04:39:59.608Z,5.07
2018-05-08T04:42:27.940Z,4.30
2018-05-08T04:44:56.290Z,4.70
2018-05-08T04:47:24.825Z,4.33
2018-05-08T04:49:53.130Z,4.70
2018-05-08T04:52:21.395Z,4.30
2018-05-08T04:54:49.713Z,4.90
2018-05-08T04:57:18.018Z,4.70
2018-05-08T04:59:47.023Z,4.30
2018-05-08T05:02:16.056Z,4.23
2018-05-08T05:04:44.367Z,4.80
2018-05-08T05:07:12.658Z,5.37
2018-05-08T05:09:41.707Z,4.60
2018-05-08T05:12:09.975Z,4.73
2018-05-08T05:14:38.290Z,6.77
2018-05-08T05:17:06.550Z,4.50
2018-05-08T05:19:34.872Z,4.77
2018-05-08T05:22:03.950Z,4.60
2018-05-08T05:24:33.048Z,4.60
2018-05-08T05:27:01.332Z,4.70
2018-05-08T05:29:30.411Z,4.87
2018-05-08T05:31:58.727Z,4.90
2018-05-08T05:34:27.041Z,4.70
2018-05-08T05:36:55.324Z,4.83
2018-05-08T05:39:23.615Z,5.27
2018-05-08T05:41:51.903Z,5.70
2018-05-08T05:44:20.168Z,4.80
2018-05-08T05:46:49.248Z,4.70
2018-05-08T05:49:17.593Z,4.77
2018-05-08T05:51:45.876Z,4.83
2018-05-08T05:54:14.168Z,4.90
2018-05-08T05:56:42.458Z,4.87
2018-05-08T05:59:10.743Z,4.97
2018-05-08T06:01:39.071Z,4.53
2018-05-08T06:04:07.339Z,4.50
2018-05-08T06:06:35.619Z,4.93
2018-05-08T06:09:04.011Z,4.50
2018-05-08T06:11:32.292Z,4.37
2018-05-08T06:14:00.631Z,4.70
2018-05-08T06:16:29.727Z,5.03
2018-05-08T06:18:58.751Z,4.73
2018-05-08T06:21:27.075Z,4.60
2018-05-08T06:23:55.399Z,4.50
2018-05-08T06:26:23.703Z,4.53
2018-05-08T06:28:51.983Z,4.53
2018-05-08T06:31:20.237Z,4.70
2018-05-08T06:33:48.527Z,4.10
2018-05-08T06:36:16.787Z,4.57
2018-05-08T06:38:45.069Z,4.10
2018-05-08T06:41:13.351Z,4.13
2018-05-08T06:43:41.651Z,4.00
2018-05-08T06:46:09.974Z,4.20
2018-05-08T06:48:38.255Z,4.50
2018-05-08T06:51:07.323Z,3.70
2018-05-08T06:53:35.636Z,4.37
2018-05-08T06:56:04.713Z,4.20
2018-05-08T06:58:33.752Z,4.43
2018-05-08T07:04:01.868Z,3.87
2018-05-08T07:06:30.175Z,3.90
2018-05-08T07:08:58.464Z,4.20
2018-05-08T07:11:27.468Z,3.93
2018-05-08T07:13:56.503Z,4.03
2018-05-08T07:16:24.799Z,4.23
2018-05-08T07:18:53.083Z,3.87
2018-05-08T07:21:21.375Z,3.90
2018-05-08T07:23:50.434Z,4.03
2018-05-08T07:26:18.761Z,3.50
2018-05-08T07:28:47.808Z,4.20
2018-05-08T07:31:16.149Z,3.90
2018-05-08T07:33:44.448Z,3.93
2018-05-08T07:36:12.748Z,3.43
2018-05-08T07:38:41.111Z,3.87
2018-05-08T07:41:09.407Z,3.63
2018-05-08T07:43:37.770Z,3.70
2018-05-08T07:46:06.073Z,3.03
2018-05-08T07:48:34.391Z,3.07
2018-05-08T07:51:02.687Z,3.60
2018-05-08T07:53:30.990Z,3.80
2018-05-08T07:55:59.288Z,3.80
2018-05-08T07:58:27.551Z,3.67
2018-05-08T08:00:55.892Z,3.37
2018-05-08T08:03:24.289Z,3.43
2018-05-08T08:05:52.634Z,3.37
2018-05-08T08:08:20.995Z,3.40
2018-05-08T08:10:50.051Z,3.60
2018-05-08T08:13:18.319Z,2.73
2018-05-08T08:15:46.616Z,2.90
2018-05-08T08:18:14.935Z,2.87
2018-05-08T08:20:43.230Z,3.10
2018-05-08T08:23:11.514Z,3.30
2018-05-08T08:25:39.779Z,3.10
2018-05-08T08:28:08.049Z,3.03
2018-05-08T08:30:36.351Z,3.20
2018-05-08T08:33:04.665Z,3.30
2018-05-08T08:35:32.958Z,3.30
2018-05-08T08:38:01.993Z,3.60
2018-05-08T08:40:30.255Z,3.30
2018-05-08T08:42:58.559Z,3.13
2018-05-08T08:45:26.807Z,3.10
2018-05-08T08:47:55.190Z,2.90
2018-05-08T08:50:23.491Z,2.93
2018-05-08T08:52:51.758Z,3.20
2018-05-08T08:55:20.161Z,3.17
2018-05-08T08:57:48.434Z,3.03
2018-05-08T09:00:16.721Z,3.03
2018-05-08T09:02:45.058Z,2.75
2018-05-08T09:05:13.334Z,3.30
2018-05-08T09:07:41.588Z,2.58
2018-05-08T09:10:10.646Z,2.75
2018-05-08T09:12:38.898Z,2.78
2018-05-08T09:15:07.208Z,2.83
2018-05-08T09:17:35.497Z,2.70
2018-05-08T09:20:04.612Z,2.25
2018-05-08T09:22:33.604Z,2.50
2018-05-08T09:25:01.895Z,2.62
2018-05-08T09:27:30.263Z,2.97
2018-05-08T09:29:58.507Z,2.60
2018-05-08T09:32:26.809Z,2.70
2018-05-08T09:34:55.858Z,2.22
2018-05-08T09:37:24.092Z,2.50
2018-05-08T09:39:52.366Z,2.58
2018-05-08T09:42:20.608Z,2.70
2018-05-08T09:44:48.883Z,2.30
2018-05-08T09:47:17.141Z,2.35
2018-05-08T09:49:45.465Z,2.65
2018-05-08T09:52:14.497Z,2.50
2018-05-08T09:54:42.787Z,2.30
2018-05-08T09:57:11.051Z,2.28
2018-05-08T09:59:39.315Z,2.83
2018-05-08T10:02:07.569Z,2.08
2018-05-08T10:04:36.605Z,2.08
2018-05-08T10:07:04.908Z,2.17
2018-05-08T10:09:33.184Z,2.40
2018-05-08T10:12:01.461Z,2.80
2018-05-08T10:14:29.716Z,1.85
2018-05-08T10:16:57.969Z,1.83
2018-05-08T10:19:26.235Z,2.30
2018-05-08T10:21:54.468Z,2.60
2018-05-08T10:24:22.751Z,1.90
2018-05-08T10:26:51.184Z,1.80
2018-05-08T10:29:19.378Z,2.05
2018-05-08T10:31:47.648Z,1.95
2018-05-08T10:34:15.977Z,1.90
2018-05-08T10:36:45.022Z,2.17
2018-05-08T10:39:13.301Z,2.15
2018-05-08T10:41:41.553Z,1.92
2018-05-08T10:44:09.808Z,1.90
2018-05-08T10:46:38.048Z,1.90
2018-05-08T10:49:06.305Z,2.05
2018-05-08T10:51:34.569Z,1.52
2018-05-08T10:54:02.829Z,1.80
2018-05-08T10:56:31.157Z,1.65
2018-05-08T10:58:59.398Z,1.90
2018-05-08T11:01:27.628Z,1.67
2018-05-08T11:03:56.668Z,1.77
2018-05-08T11:06:24.974Z,1.65
2018-05-08T11:08:53.229Z,1.98
2018-05-08T11:11:21.519Z,2.20
2018-05-08T11:13:49.790Z,1.60
2018-05-08T11:16:18.087Z,1.90
2018-05-08T11:18:46.377Z,1.70
2018-05-08T11:21:14.847Z,1.70
2018-05-08T11:23:43.138Z,1.58
2018-05-08T11:26:12.182Z,2.00
2018-05-08T11:28:40.457Z,2.10
2018-05-08T11:31:08.721Z,2.42
2018-05-08T11:33:36.998Z,2.15
2018-05-08T11:36:05.294Z,2.17
2018-05-08T11:38:33.618Z,1.83
2018-05-08T11:41:01.872Z,2.00
2018-05-08T11:43:30.118Z,1.98
2018-05-08T11:45:58.481Z,2.10
2018-05-08T11:48:26.737Z,2.10
2018-05-08T11:50:55.778Z,2.05
2018-05-08T11:53:24.055Z,2.00
2018-05-08T11:55:52.294Z,2.30
2018-05-08T11:58:20.578Z,1.83
2018-05-08T12:00:48.904Z,2.30
2018-05-08T12:03:17.131Z,2.00
2018-05-08T12:05:45.362Z,2.10
2018-05-08T12:08:13.643Z,2.28
2018-05-08T12:10:41.946Z,2.03
2018-05-08T12:13:11.001Z,2.15
2018-05-08T12:15:39.283Z,2.17
2018-05-08T12:18:07.591Z,2.00
2018-05-08T12:20:35.926Z,2.33
2018-05-08T12:23:04.189Z,1.75
2018-05-08T12:25:32.459Z,1.70
2018-05-08T12:28:00.728Z,2.55
2018-05-08T12:30:28.991Z,2.00
2018-05-08T12:32:57.246Z,1.95
2018-05-08T12:35:25.543Z,2.17
2018-05-08T12:37:53.815Z,2.00
2018-05-08T12:40:22.095Z,2.17
2018-05-08T12:42:50.414Z,2.10
2018-05-08T12:45:18.688Z,1.90
2018-05-08T12:47:46.919Z,2.00
2018-05-08T12:50:15.933Z,2.03
2018-05-08T12:52:45.058Z,2.25
2018-05-08T12:55:13.409Z,1.90
2018-05-08T12:57:41.809Z,1.90
2018-05-08T13:00:10.096Z,1.77
2018-05-08T13:02:38.404Z,2.00
2018-05-08T13:05:07.467Z,1.67
2018-05-08T13:07:35.749Z,1.90
2018-05-08T13:10:04.076Z,1.80
2018-05-08T13:12:32.375Z,1.70
2018-05-08T13:15:00.665Z,1.80
2018-05-08T13:17:28.974Z,1.70
2018-05-08T13:19:57.291Z,1.92
2018-05-08T13:22:25.571Z,1.87
2018-05-08T13:24:53.821Z,1.65
2018-05-08T13:27:22.089Z,1.70
2018-05-08T13:29:50.459Z,1.70
2018-05-08T13:32:18.760Z,1.40
2018-05-08T13:34:47.780Z,1.80
2018-05-08T13:37:16.048Z,1.42
2018-05-08T13:39:44.348Z,1.77
2018-05-08T13:42:12.605Z,1.75
2018-05-08T13:44:40.873Z,1.62
2018-05-08T13:47:10.016Z,1.67
2018-05-08T13:49:38.337Z,1.60
2018-05-08T13:52:07.358Z,1.65
2018-05-08T13:54:35.636Z,2.00
2018-05-08T13:57:03.908Z,2.03
2018-05-08T13:59:32.186Z,1.92
2018-05-08T14:02:00.497Z,2.00
2018-05-08T14:04:28.789Z,1.80
2018-05-08T14:06:57.128Z,1.50
2018-05-08T14:09:25.392Z,1.80
2018-05-08T14:11:53.660Z,1.67
2018-05-08T14:14:21.933Z,1.48
2018-05-08T14:16:50.181Z,1.67
2018-05-08T14:19:18.559Z,1.65
2018-05-08T14:21:46.796Z,1.90
2018-05-08T14:24:15.077Z,1.92
2018-05-08T14:26:43.371Z,1.80
2018-05-08T14:29:11.675Z,1.75
2018-05-08T14:31:40.771Z,1.80
2018-05-08T14:34:09.013Z,1.90
2018-05-08T14:36:37.265Z,1.60
2018-05-08T14:39:06.541Z,2.05
2018-05-08T14:41:34.827Z,1.70
2018-05-08T14:44:03.182Z,1.80
2018-05-08T14:46:32.223Z,1.85
2018-05-08T14:49:00.462Z,1.40
2018-05-08T14:51:29.444Z,1.70
2018-05-08T14:53:58.507Z,1.73
2018-05-08T14:56:26.755Z,1.95
2018-05-08T14:58:55.029Z,1.80
2018-05-08T15:01:24.212Z,1.73
2018-05-08T15:03:52.466Z,2.15
2018-05-08T15:06:21.533Z,1.83
2018-05-08T15:08:49.846Z,1.87
2018-05-08T15:11:18.873Z,1.58
2018-05-08T15:13:47.150Z,1.90
2018-05-08T15:16:15.400Z,1.80
2018-05-08T15:18:43.690Z,1.98
2018-05-08T15:21:12.011Z,1.80
2018-05-08T15:23:40.293Z,2.00
2018-05-08T15:26:08.559Z,1.75
2018-05-08T15:28:36.821Z,2.03
2018-05-08T15:31:05.058Z,1.85
2018-05-08T15:33:34.104Z,1.60
2018-05-08T15:36:02.432Z,1.73
2018-05-08T15:38:30.710Z,3.17
2018-05-08T15:40:59.023Z,1.90
2018-05-08T15:43:27.287Z,2.00
2018-05-08T15:45:55.591Z,1.90
2018-05-08T15:48:23.866Z,2.53
2018-05-08T15:50:52.137Z,1.80
2018-05-08T15:53:20.394Z,1.70
2018-05-08T15:55:48.674Z,1.55
2018-05-08T15:58:16.922Z,1.80
2018-05-08T16:00:45.948Z,2.00
2018-05-08T16:03:14.269Z,1.60
2018-05-08T16:05:43.339Z,1.58
2018-05-08T16:08:11.597Z,1.65
2018-05-08T16:10:39.823Z,1.62
2018-05-08T16:13:08.853Z,1.58
2018-05-08T16:15:37.109Z,1.62
2018-05-08T16:18:05.434Z,1.77
2018-05-08T16:20:33.713Z,1.87
2018-05-08T16:23:01.989Z,1.77
2018-05-08T16:25:30.277Z,1.95
2018-05-08T16:27:58.553Z,1.60
2018-05-08T16:30:26.819Z,1.90
2018-05-08T16:32:55.170Z,1.70
2018-05-08T16:35:23.425Z,2.15
2018-05-08T16:37:52.437Z,1.80
2018-05-08T16:40:20.691Z,1.73
2018-05-08T16:42:49.729Z,1.80
2018-05-08T16:45:18.050Z,1.67
2018-05-08T16:47:47.127Z,1.77
2018-05-08T16:50:15.372Z,1.80
2018-05-08T16:52:43.684Z,6.35
2018-05-08T16:55:11.938Z,2.53
2018-05-08T16:57:40.249Z,2.30
2018-05-08T17:00:08.520Z,1.80
2018-05-08T17:02:36.799Z,2.30
2018-05-08T17:05:05.075Z,2.53
2018-05-08T17:07:33.401Z,2.03
2018-05-08T17:10:01.656Z,2.12
2018-05-08T17:12:29.998Z,1.90
2018-05-08T17:14:58.234Z,1.58
2018-05-08T17:17:26.538Z,1.92
2018-05-08T17:19:54.795Z,1.90
2018-05-08T17:22:23.062Z,1.90
2018-05-08T17:24:51.354Z,2.00
2018-05-08T17:27:19.962Z,1.67
2018-05-08T17:29:48.281Z,1.55
2018-05-08T17:32:21.588Z,1.75
2018-05-08T17:34:50.985Z,2.08
2018-05-08T17:37:19.319Z,1.65
2018-05-08T17:39:47.590Z,2.03
2018-05-08T17:42:15.891Z,2.15
2018-05-08T17:44:46.558Z,1.85
2018-05-08T17:47:14.812Z,1.92
2018-05-08T17:49:53.247Z,2.00
2018-05-08T17:52:22.658Z,2.12
2018-05-08T17:54:50.934Z,1.98
2018-05-08T17:57:19.228Z,1.95
2018-05-08T17:59:47.535Z,2.00
2018-05-08T18:02:15.796Z,2.20
2018-05-08T18:04:44.128Z,1.90
2018-05-08T18:07:12.425Z,2.12
2018-05-08T18:09:40.718Z,1.98
2018-05-08T18:12:08.963Z,2.10
2018-05-08T18:14:37.269Z,2.10
2018-05-08T18:17:05.528Z,1.87
2018-05-08T18:19:33.829Z,1.95
2018-05-08T18:22:02.093Z,1.92
2018-05-08T18:24:30.353Z,2.10
2018-05-08T18:26:58.576Z,2.20
2018-05-08T18:29:26.807Z,3.30
2018-05-08T18:31:55.026Z,2.45
2018-05-08T18:34:23.396Z,1.80
2018-05-08T18:36:51.590Z,1.98
2018-05-08T18:39:19.829Z,2.20
2018-05-08T18:41:48.087Z,1.87
2018-05-08T18:44:16.349Z,2.22
2018-05-08T18:46:44.597Z,2.55
2018-05-08T18:49:12.919Z,1.90
2018-05-08T18:51:41.175Z,2.25
2018-05-08T18:54:10.220Z,2.17
2018-05-08T18:56:38.487Z,2.03
2018-05-08T18:59:06.766Z,2.10
2018-05-08T19:01:35.029Z,2.40
2018-05-08T19:04:03.287Z,2.15
2018-05-08T19:06:31.607Z,2.05
2018-05-08T19:09:00.664Z,2.65
2018-05-08T19:11:34.430Z,2.10
2018-05-08T19:14:03.508Z,1.90
2018-05-08T19:16:31.761Z,2.40
2018-05-08T19:19:05.607Z,2.67
2018-05-08T19:21:33.860Z,2.10
2018-05-08T19:24:07.506Z,2.47
2018-05-08T19:26:36.626Z,2.30
2018-05-08T19:29:10.251Z,2.20
2018-05-08T19:31:38.515Z,2.00
2018-05-08T19:34:06.806Z,2.15
2018-05-08T19:36:40.423Z,2.40
2018-05-08T19:39:08.824Z,2.25
2018-05-08T19:41:37.866Z,1.95
2018-05-08T19:44:06.124Z,2.20
2018-05-08T19:46:34.349Z,2.42
2018-05-08T19:49:02.635Z,2.40
2018-05-08T19:51:30.955Z,2.35
2018-05-08T19:53:59.219Z,2.15
2018-05-08T19:56:27.501Z,2.35
2018-05-08T19:58:55.749Z,2.33
2018-05-08T20:01:24.822Z,2.33
2018-05-08T20:03:53.095Z,2.08
2018-05-08T20:06:21.349Z,2.15
2018-05-08T20:08:49.638Z,2.60
2018-05-08T20:11:18.272Z,2.50
2018-05-08T20:13:47.338Z,2.37
2018-05-08T20:16:15.650Z,2.53
2018-05-08T20:18:44.706Z,2.47
2018-05-08T20:21:13.016Z,2.60
2018-05-08T20:23:42.001Z,2.67
2018-05-08T20:26:10.249Z,2.27
2018-05-08T20:28:38.518Z,2.20
2018-05-08T20:31:06.811Z,2.43
2018-05-08T20:33:35.111Z,2.27
2018-05-08T20:36:04.189Z,2.23
2018-05-08T20:38:32.461Z,2.60
2018-05-08T20:41:00.736Z,2.63
2018-05-08T20:43:29.009Z,2.33
2018-05-08T20:45:57.270Z,2.53
2018-05-08T20:48:25.530Z,2.40
2018-05-08T20:50:53.794Z,2.90
2018-05-08T20:53:22.089Z,2.60
2018-05-08T20:55:50.422Z,2.23
2018-05-08T20:58:19.448Z,2.70
2018-05-08T21:00:47.757Z,2.37
2018-05-08T21:03:16.029Z,2.83
2018-05-08T21:05:44.333Z,2.60
2018-05-08T21:08:12.648Z,2.90
2018-05-08T21:10:40.950Z,2.87
2018-05-08T21:13:09.188Z,2.40
2018-05-08T21:15:38.245Z,2.80
2018-05-08T21:18:06.473Z,2.90
2018-05-08T21:20:34.730Z,2.73
2018-05-08T21:23:03.787Z,2.60
2018-05-08T21:25:32.073Z,2.57
2018-05-08T21:28:05.751Z,2.67
2018-05-08T21:30:39.525Z,2.53
2018-05-08T21:33:08.550Z,2.70
2018-05-08T21:35:36.793Z,2.77
2018-05-08T21:38:05.026Z,2.97
2018-05-08T21:40:33.290Z,2.90
2018-05-08T21:43:01.529Z,3.10
2018-05-08T21:45:29.745Z,3.60
2018-05-08T21:47:58.019Z,3.03
2018-05-08T21:50:26.245Z,3.00
2018-05-08T21:52:55.310Z,2.80
2018-05-08T21:55:23.564Z,2.67
2018-05-08T21:57:52.612Z,2.83
2018-05-08T22:00:21.660Z,3.20
2018-05-08T22:02:49.922Z,2.97
2018-05-08T22:05:18.190Z,3.10
2018-05-08T22:07:46.435Z,2.90
2018-05-08T22:10:15.421Z,2.80
2018-05-08T22:12:44.410Z,2.73
2018-05-08T22:15:13.395Z,3.00
2018-05-08T22:17:41.667Z,2.90
2018-05-08T22:20:09.993Z,2.83
2018-05-08T22:22:38.959Z,3.13
2018-05-08T22:25:07.941Z,2.83
2018-05-08T22:27:36.947Z,3.00
2018-05-08T22:30:05.978Z,3.17
2018-05-08T22:32:34.248Z,3.10
2018-05-08T22:35:02.548Z,3.50
2018-05-08T22:37:30.846Z,3.10
2018-05-08T22:39:59.046Z,3.30
2018-05-08T22:42:28.046Z,3.20
2018-05-08T22:44:56.330Z,2.67
2018-05-08T22:47:24.569Z,2.80
2018-05-08T22:49:52.822Z,3.17
2018-05-08T22:52:21.110Z,2.90
2018-05-08T22:54:49.364Z,3.57
2018-05-08T22:57:17.628Z,3.37
2018-05-08T22:59:45.900Z,3.73
2018-05-08T23:02:14.150Z,3.27
2018-05-08T23:04:43.146Z,3.50
2018-05-08T23:07:12.139Z,3.83
2018-05-08T23:09:40.403Z,3.50
2018-05-08T23:12:09.390Z,3.70
2018-05-08T23:14:38.430Z,3.53
2018-05-08T23:17:06.663Z,3.60
2018-05-08T23:19:34.912Z,3.37
2018-05-08T23:22:03.173Z,3.57
2018-05-08T23:24:31.427Z,3.50
2018-05-08T23:26:59.706Z,3.90
2018-05-08T23:29:27.968Z,3.50
2018-05-08T23:31:56.970Z,3.20
2018-05-08T23:34:25.207Z,3.57
2018-05-08T23:36:53.466Z,3.50
2018-05-08T23:39:21.767Z,3.60
2018-05-08T23:41:50.774Z,3.60
2018-05-08T23:44:19.812Z,3.30
2018-05-08T23:46:48.129Z,3.80
2018-05-08T23:49:16.403Z,3.93
2018-05-08T23:51:44.660Z,4.20
2018-05-08T23:54:12.887Z,3.50
2018-05-08T23:56:41.126Z,3.87
2018-05-08T23:59:09.392Z,4.03
